createdAt,value
2022-08-17T00:03:44.000Z,20.54
2022-08-17T00:08:37.000Z,20.39
2022-08-17T00:13:32.000Z,20.37
2022-08-17T00:18:26.000Z,20.19
2022-08-17T00:23:19.000Z,20.11
2022-08-17T00:28:14.000Z,20.08
2022-08-17T00:33:07.000Z,20.05
2022-08-17T00:38:02.000Z,20.03
2022-08-17T00:42:56.000Z,20.1
2022-08-17T00:47:49.000Z,20.1
2022-08-17T00:52:44.000Z,20.05
2022-08-17T00:57:38.000Z,19.95
2022-08-17T01:02:31.000Z,19.85
2022-08-17T01:07:25.000Z,19.77
2022-08-17T01:12:20.000Z,19.5
2022-08-17T01:17:14.000Z,19.44
2022-08-17T01:22:09.000Z,19.41
2022-08-17T01:27:03.000Z,19.31
2022-08-17T01:31:57.000Z,19.41
2022-08-17T01:36:52.000Z,19.39
2022-08-17T01:41:46.000Z,19.45
2022-08-17T01:46:41.000Z,19.39
2022-08-17T01:51:35.000Z,19.43
2022-08-17T01:56:29.000Z,19.44
2022-08-17T02:01:24.000Z,19.35
2022-08-17T02:06:19.000Z,19.38
2022-08-17T02:11:13.000Z,19.32
2022-08-17T02:16:08.000Z,19.32
2022-08-17T02:21:01.000Z,19.34
2022-08-17T02:25:56.000Z,19.31
2022-08-17T02:30:51.000Z,19.41
2022-08-17T02:35:45.000Z,19.37
2022-08-17T02:40:40.000Z,19.42
2022-08-17T02:45:34.000Z,19.45
2022-08-17T02:50:29.000Z,19.47
2022-08-17T02:55:23.000Z,19.43
2022-08-17T03:00:18.000Z,19.4
2022-08-17T03:05:12.000Z,19.42
2022-08-17T03:10:06.000Z,19.36
2022-08-17T03:15:01.000Z,19.3
2022-08-17T03:19:55.000Z,19.24
2022-08-17T03:24:50.000Z,19.23
2022-08-17T03:29:44.000Z,19.26
2022-08-17T03:34:39.000Z,19.17
2022-08-17T03:39:33.000Z,18.98
2022-08-17T03:44:27.000Z,18.94
2022-08-17T03:49:22.000Z,18.99
2022-08-17T03:54:18.000Z,19
2022-08-17T03:59:12.000Z,19.08
2022-08-17T04:04:06.000Z,19.05
2022-08-17T04:09:00.000Z,18.96
2022-08-17T04:13:55.000Z,18.9
2022-08-17T04:18:50.000Z,18.88
2022-08-17T04:23:42.000Z,18.9
2022-08-17T04:28:36.000Z,18.91
2022-08-17T04:33:31.000Z,18.97
2022-08-17T04:38:25.000Z,18.87
2022-08-17T04:43:20.000Z,18.95
2022-08-17T04:48:14.000Z,18.95
2022-08-17T04:53:09.000Z,19.03
2022-08-17T04:58:03.000Z,19.12
2022-08-17T05:02:58.000Z,19.27
2022-08-17T05:07:52.000Z,19.5
2022-08-17T05:12:47.000Z,19.63
2022-08-17T05:17:41.000Z,19.58
2022-08-17T05:22:36.000Z,19.52
2022-08-17T05:27:30.000Z,19.69
2022-08-17T05:32:25.000Z,19.81
2022-08-17T05:37:20.000Z,19.65
2022-08-17T05:42:14.000Z,19.94
2022-08-17T05:47:08.000Z,20.03
2022-08-17T05:52:03.000Z,20.27
2022-08-17T05:56:57.000Z,20.48
2022-08-17T06:01:52.000Z,20.4
2022-08-17T06:06:47.000Z,20.65
2022-08-17T06:11:42.000Z,20.53
2022-08-17T06:16:36.000Z,20.52
2022-08-17T06:21:31.000Z,20.35
2022-08-17T06:26:26.000Z,20.14
2022-08-17T06:31:20.000Z,20.53
2022-08-17T06:36:15.000Z,20.7
2022-08-17T06:41:10.000Z,20.82
2022-08-17T06:46:07.000Z,20.68
2022-08-17T06:50:58.000Z,20.7
2022-08-17T06:55:53.000Z,20.83
2022-08-17T07:00:47.000Z,20.73
2022-08-17T07:05:42.000Z,20.86
2022-08-17T07:10:36.000Z,21.03
2022-08-17T07:15:30.000Z,20.75
2022-08-17T07:20:25.000Z,21.11
2022-08-17T07:25:19.000Z,21.34
2022-08-17T07:30:14.000Z,21.82
2022-08-17T07:35:08.000Z,22.02
2022-08-17T07:40:03.000Z,22.14
2022-08-17T07:44:57.000Z,22.38
2022-08-17T07:49:52.000Z,22.47
2022-08-17T07:54:46.000Z,22.54
2022-08-17T07:59:40.000Z,22.27
2022-08-17T08:04:35.000Z,22.61
2022-08-17T08:09:30.000Z,22.12
2022-08-17T08:14:22.000Z,22.33
2022-08-17T08:19:16.000Z,22.83
2022-08-17T08:24:10.000Z,23.45
2022-08-17T08:29:05.000Z,23.57
2022-08-17T08:33:58.000Z,23.4
2022-08-17T08:38:53.000Z,23.46
2022-08-17T08:43:48.000Z,23.69
2022-08-17T08:48:43.000Z,23.45
2022-08-17T08:53:37.000Z,23.69
2022-08-17T08:58:32.000Z,23.29
2022-08-17T09:03:27.000Z,23.12
2022-08-17T09:08:22.000Z,23.5
2022-08-17T09:13:16.000Z,23.84
2022-08-17T09:18:11.000Z,23.99
2022-08-17T09:23:05.000Z,24.22
2022-08-17T09:28:03.000Z,24.61
2022-08-17T09:32:54.000Z,24.39
2022-08-17T09:37:49.000Z,24.59
2022-08-17T09:42:44.000Z,25.7
2022-08-17T09:47:39.000Z,27.17
2022-08-17T09:52:35.000Z,27.48
2022-08-17T09:57:28.000Z,26.9
2022-08-17T10:02:22.000Z,26.32
2022-08-17T10:07:17.000Z,26.16
2022-08-17T10:12:11.000Z,26.33
2022-08-17T10:17:03.000Z,26.22
2022-08-17T10:21:57.000Z,26.54
2022-08-17T10:26:52.000Z,28.83
2022-08-17T10:31:48.000Z,27.83
2022-08-17T10:36:42.000Z,26.1
2022-08-17T10:41:36.000Z,26.13
2022-08-17T10:46:30.000Z,26.26
2022-08-17T10:51:24.000Z,27.26
2022-08-17T10:56:19.000Z,28.16
2022-08-17T11:01:15.000Z,29.71
2022-08-17T11:06:10.000Z,28.22
2022-08-17T11:11:05.000Z,29.09
2022-08-17T11:16:00.000Z,28.39
2022-08-17T11:20:54.000Z,30.69
2022-08-17T11:25:50.000Z,30.14
2022-08-17T11:30:42.000Z,28.77
2022-08-17T11:35:35.000Z,28.61
2022-08-17T11:40:29.000Z,31.94
2022-08-17T11:45:22.000Z,31.19
2022-08-17T11:50:17.000Z,32.59
2022-08-17T11:55:12.000Z,32.92
2022-08-17T12:00:07.000Z,34.38
2022-08-17T12:05:01.000Z,32.96
2022-08-17T12:09:55.000Z,30.71
2022-08-17T12:14:49.000Z,34.34
2022-08-17T12:19:44.000Z,32.51
2022-08-17T12:24:36.000Z,31.07
2022-08-17T12:29:28.000Z,32.38
2022-08-17T12:34:21.000Z,30.95
2022-08-17T12:39:15.000Z,31.25
2022-08-17T12:44:10.000Z,35.81
2022-08-17T12:49:06.000Z,36.87
2022-08-17T12:54:02.000Z,34.02
2022-08-17T12:58:57.000Z,32.82
2022-08-17T13:03:50.000Z,36.73
2022-08-17T13:08:46.000Z,33.83
2022-08-17T13:13:40.000Z,30.21
2022-08-17T13:18:34.000Z,30.1
2022-08-17T13:23:27.000Z,32.5
2022-08-17T13:28:23.000Z,35.49
2022-08-17T13:33:18.000Z,33.46
2022-08-17T13:38:13.000Z,31.77
2022-08-17T13:43:08.000Z,32.02
2022-08-17T13:48:03.000Z,36.61
2022-08-17T13:52:59.000Z,37.61
2022-08-17T13:57:55.000Z,33.32
2022-08-17T14:02:49.000Z,32.49
2022-08-17T14:07:43.000Z,31.08
2022-08-17T14:12:37.000Z,33.54
2022-08-17T14:17:33.000Z,35.43
2022-08-17T14:22:29.000Z,35.09
2022-08-17T14:27:23.000Z,36.32
2022-08-17T14:32:17.000Z,36.97
2022-08-17T14:37:13.000Z,36.84
2022-08-17T14:42:08.000Z,35.82
2022-08-17T14:47:04.000Z,37.3
2022-08-17T14:51:59.000Z,36.46
2022-08-17T14:56:52.000Z,36.23
2022-08-17T15:01:46.000Z,35.57
2022-08-17T15:06:41.000Z,35.2
2022-08-17T15:11:36.000Z,34.89
2022-08-17T15:16:30.000Z,36.67
2022-08-17T15:21:25.000Z,37.17
2022-08-17T15:26:20.000Z,37.55
2022-08-17T15:31:15.000Z,36.79
2022-08-17T15:36:09.000Z,36.57
2022-08-17T15:41:04.000Z,36.93
2022-08-17T15:45:59.000Z,35.33
2022-08-17T15:50:52.000Z,36.48
2022-08-17T15:55:47.000Z,36.99
2022-08-17T16:00:42.000Z,37.24
2022-08-17T16:05:37.000Z,37.2
2022-08-17T16:10:32.000Z,36.82
2022-08-17T16:15:26.000Z,37.23
2022-08-17T16:20:22.000Z,36.33
2022-08-17T16:25:16.000Z,34.35
2022-08-17T16:30:10.000Z,34.05
2022-08-17T16:35:05.000Z,35.68
2022-08-17T16:39:59.000Z,34.26
2022-08-17T16:44:53.000Z,34.86
2022-08-17T16:49:47.000Z,33.88
2022-08-17T16:54:42.000Z,32.24
2022-08-17T16:59:36.000Z,31
2022-08-17T17:04:30.000Z,31.62
2022-08-17T17:09:24.000Z,31.85
2022-08-17T17:14:19.000Z,34.42
2022-08-17T17:19:13.000Z,34.78
2022-08-17T17:24:08.000Z,33.96
2022-08-17T17:29:03.000Z,33.78
2022-08-17T17:33:58.000Z,32.28
2022-08-17T17:38:53.000Z,31.83
2022-08-17T17:43:48.000Z,30.38
2022-08-17T17:48:42.000Z,30.37
2022-08-17T17:53:37.000Z,30.62
2022-08-17T17:58:31.000Z,30.16
2022-08-17T18:03:26.000Z,28.37
2022-08-17T18:08:20.000Z,27.27
2022-08-17T18:13:14.000Z,26.58
2022-08-17T18:18:09.000Z,26.02
2022-08-17T18:23:03.000Z,25.63
2022-08-17T18:27:57.000Z,25.48
2022-08-17T18:32:52.000Z,25.27
2022-08-17T18:37:46.000Z,25.17
2022-08-17T18:42:40.000Z,24.78
2022-08-17T18:47:35.000Z,24.76
2022-08-17T18:52:29.000Z,24.48
2022-08-17T18:57:21.000Z,24.28
2022-08-17T19:02:14.000Z,24.15
2022-08-17T19:07:09.000Z,24.03
2022-08-17T19:12:03.000Z,23.92
2022-08-17T19:16:58.000Z,23.77
2022-08-17T19:21:52.000Z,23.63
2022-08-17T19:26:47.000Z,23.39
2022-08-17T19:36:36.000Z,23.12
2022-08-17T19:41:30.000Z,23.16
2022-08-17T19:46:25.000Z,23.12
2022-08-17T19:51:19.000Z,23.01
2022-08-17T19:56:14.000Z,23.04
2022-08-17T20:01:08.000Z,23.03
2022-08-17T20:06:03.000Z,22.95
2022-08-17T20:10:57.000Z,22.92
2022-08-17T20:15:51.000Z,22.99
2022-08-17T20:20:46.000Z,22.66
2022-08-17T20:25:40.000Z,22.58
2022-08-17T20:30:35.000Z,22.65
2022-08-17T20:35:28.000Z,22.61
2022-08-17T20:40:23.000Z,22.58
2022-08-17T20:45:18.000Z,22.48
2022-08-17T20:50:12.000Z,22.24
2022-08-17T20:55:06.000Z,22.22
2022-08-17T21:00:01.000Z,22.06
2022-08-17T21:04:55.000Z,22.03
2022-08-17T21:09:49.000Z,21.99
2022-08-17T21:14:42.000Z,21.92
2022-08-17T21:19:37.000Z,21.88
2022-08-17T21:24:32.000Z,21.59
2022-08-17T21:29:25.000Z,21.64
2022-08-17T21:34:20.000Z,21.48
2022-08-17T21:39:14.000Z,21.15
2022-08-17T21:44:09.000Z,21.25
2022-08-17T21:49:03.000Z,21.21
2022-08-17T21:53:57.000Z,21.29
2022-08-17T21:58:52.000Z,21.36
2022-08-17T22:03:46.000Z,21.1
2022-08-17T22:08:41.000Z,21.12
2022-08-17T22:13:35.000Z,21.04
2022-08-17T22:18:30.000Z,20.96
2022-08-17T22:23:24.000Z,21.05
2022-08-17T22:28:19.000Z,21.06
2022-08-17T22:33:13.000Z,21.13
2022-08-17T22:38:07.000Z,21.17
2022-08-17T22:43:01.000Z,21.07
2022-08-17T22:47:56.000Z,20.9
2022-08-17T22:52:50.000Z,20.82
2022-08-17T22:57:44.000Z,20.81
2022-08-17T23:02:38.000Z,20.65
2022-08-17T23:07:33.000Z,20.51
2022-08-17T23:12:27.000Z,20.5
2022-08-17T23:17:22.000Z,20.46
2022-08-17T23:22:17.000Z,20.36
2022-08-17T23:27:11.000Z,20.35
2022-08-17T23:32:06.000Z,20.38
2022-08-17T23:37:00.000Z,20.33
2022-08-17T23:51:44.000Z,20
2022-08-17T23:56:38.000Z,19.87
